Time;durP1;ratioP1;P1;durP2;ratioP2;P2;SDS_P1;SDS_P2;PMS_P1;PMS_P2;Temp;Humidity;BMP_temperature;BMP_pressure;BME280_temperature;BME280_humidity;BME280_pressure;Samples;Min_cycle;Max_cycle;Signal;HPM_P1;HPM_P2
2024/04/19 00:01:06;;;;;;;4.17;2.40;;;;;;;6.42;100.00;96422.06;5393715;26;20306;-77
2024/04/19 00:03:34;;;;;;;6.90;3.13;;;;;;;6.21;100.00;96418.06;5392862;26;20235;-76
2024/04/19 00:06:00;;;;;;;3.77;2.43;;;;;;;5.91;100.00;96415.75;5394305;26;20372;-78
2024/04/19 00:08:28;;;;;;;4.80;3.03;;;;;;;5.85;100.00;96416.31;5394315;26;20243;-77
2024/04/19 00:10:55;;;;;;;6.17;3.30;;;;;;;5.95;100.00;96411.06;5394358;26;20298;-77
2024/04/19 00:13:24;;;;;;;4.87;2.93;;;;;;;5.93;100.00;96407.75;5392246;26;20273;-77
2024/04/19 00:15:51;;;;;;;5.93;3.30;;;;;;;5.81;100.00;96408.94;5393344;26;20461;-77
2024/04/19 00:18:21;;;;;;;5.83;3.70;;;;;;;6.07;100.00;96410.69;5392967;26;20231;-77
2024/04/19 00:20:47;;;;;;;5.37;3.00;;;;;;;6.04;100.00;96411.81;5394975;26;20291;-78
2024/04/19 00:23:16;;;;;;;6.50;3.63;;;;;;;5.74;100.00;96400.81;5393079;26;20269;-77
2024/04/19 00:25:41;;;;;;;5.93;3.50;;;;;;;5.73;100.00;96396.53;5394870;26;20274;-76
2024/04/19 00:28:09;;;;;;;6.40;3.57;;;;;;;5.85;100.00;96395.41;5394486;26;21139;-77
2024/04/19 00:30:35;;;;;;;6.63;2.73;;;;;;;5.85;100.00;96389.34;5394001;26;20844;-77
2024/04/19 00:33:03;;;;;;;5.93;3.43;;;;;;;5.90;100.00;96377.50;5393182;26;20231;-77
2024/04/19 00:35:31;;;;;;;6.60;3.10;;;;;;;6.07;100.00;96379.31;5394538;26;20305;-76
2024/04/19 00:37:59;;;;;;;6.37;2.77;;;;;;;5.91;100.00;96386.97;5393845;26;20227;-77
2024/04/19 00:40:25;;;;;;;6.33;3.60;;;;;;;5.83;100.00;96386.91;5393715;26;20372;-77
2024/04/19 00:42:54;;;;;;;7.17;3.10;;;;;;;5.89;100.00;96377.63;5393508;26;20311;-77
2024/04/19 00:45:32;;;;;;;5.43;3.10;;;;;;;6.04;100.00;96381.41;5393665;26;20348;-78
2024/04/19 00:48:01;;;;;;;6.57;3.37;;;;;;;5.78;100.00;96377.81;5394482;26;20330;-77
2024/04/19 00:50:30;;;;;;;4.50;3.00;;;;;;;5.84;100.00;96382.47;5394910;26;20243;-76
2024/04/19 00:53:01;;;;;;;6.07;2.93;;;;;;;5.91;100.00;96384.38;5397621;26;20230;-77
2024/04/19 00:55:27;;;;;;;4.77;3.03;;;;;;;5.84;100.00;96392.94;5396450;26;20282;-77
2024/04/19 00:57:56;;;;;;;6.07;3.30;;;;;;;5.76;100.00;96393.66;5397150;26;20652;-77
2024/04/19 01:00:22;;;;;;;7.47;3.10;;;;;;;5.67;100.00;96393.66;5397992;26;20479;-77
2024/04/19 01:02:51;;;;;;;4.83;3.07;;;;;;;5.83;100.00;96391.28;5396534;26;20364;-76
2024/04/19 01:05:16;;;;;;;8.70;3.20;;;;;;;5.79;100.00;96388.16;5398602;26;20295;-77
2024/04/19 01:07:44;;;;;;;6.50;3.40;;;;;;;5.72;100.00;96400.09;5397638;26;20308;-78
2024/04/19 01:10:13;;;;;;;7.13;3.50;;;;;;;5.74;100.00;96392.13;5398807;26;20287;-78
2024/04/19 01:12:41;;;;;;;5.67;3.43;;;;;;;5.48;100.00;96393.72;5396186;26;20319;-77
2024/04/19 01:15:14;;;;;;;8.37;4.37;;;;;;;5.85;100.00;96392.78;5398919;26;20352;-77
2024/04/19 01:17:42;;;;;;;5.70;3.47;;;;;;;5.68;100.00;96392.72;5397488;26;20231;-76
2024/04/19 01:20:08;;;;;;;5.43;3.23;;;;;;;5.62;100.00;96391.47;5398579;26;20291;-77
2024/04/19 01:22:37;;;;;;;6.83;3.50;;;;;;;5.68;100.00;96388.28;5395900;26;20238;-77
2024/04/19 01:25:04;;;;;;;6.60;3.67;;;;;;;5.44;100.00;96384.53;5397406;26;20286;-78
2024/04/19 01:27:35;;;;;;;5.97;3.70;;;;;;;5.53;100.00;96381.88;5397995;26;20235;-77
2024/04/19 01:30:01;;;;;;;5.63;3.33;;;;;;;5.48;100.00;96378.88;5395773;26;20279;-77
2024/04/19 01:32:29;;;;;;;6.33;3.50;;;;;;;5.51;100.00;96388.22;5396603;26;20357;-77
2024/04/19 01:34:55;;;;;;;6.20;3.60;;;;;;;5.58;100.00;96381.47;5396376;26;20284;-77
2024/04/19 01:37:23;;;;;;;6.43;3.70;;;;;;;5.52;100.00;96382.03;5398511;26;21470;-76
2024/04/19 01:39:48;;;;;;;6.43;3.80;;;;;;;5.61;100.00;96379.41;5397017;26;20353;-78
2024/04/19 01:42:17;;;;;;;11.63;4.47;;;;;;;5.68;100.00;96387.47;5397718;26;20246;-77
2024/04/19 01:44:45;;;;;;;6.33;3.60;;;;;;;5.75;100.00;96376.31;5396071;26;20504;-76
2024/04/19 01:47:13;;;;;;;8.37;3.73;;;;;;;5.68;100.00;96377.03;5397231;26;20269;-77
2024/04/19 01:53:03;;;;;;;8.47;4.13;;;;;;;5.43;100.00;96373.28;5396535;26;20288;-76
2024/04/19 01:55:31;;;;;;;6.70;3.80;;;;;;;5.68;100.00;96374.41;5396938;26;20234;-78
2024/04/19 01:57:57;;;;;;;5.87;3.40;;;;;;;5.47;100.00;96376.41;5397641;26;20222;-76
2024/04/19 02:00:28;;;;;;;6.17;3.50;;;;;;;5.68;100.00;96377.03;5397194;26;20281;-78
2024/04/19 02:02:53;;;;;;;6.17;3.33;;;;;;;5.66;100.00;96366.69;5397182;26;20238;-77
2024/04/19 02:05:21;;;;;;;4.93;3.43;;;;;;;5.41;100.00;96366.53;5398552;26;20435;-77
2024/04/19 02:07:47;;;;;;;6.43;3.70;;;;;;;5.40;100.00;96364.88;5397007;26;21861;-77
2024/04/19 02:10:15;;;;;;;7.93;4.27;;;;;;;5.60;100.00;96358.59;5397913;26;21437;-76
2024/04/19 02:12:40;;;;;;;7.57;3.87;;;;;;;5.48;100.00;96354.53;5396062;26;20346;-77
2024/04/19 02:15:09;;;;;;;7.30;3.67;;;;;;;5.35;100.00;96348.00;5398898;26;20231;-76
2024/04/19 02:17:38;;;;;;;5.17;3.27;;;;;;;5.26;100.00;96343.63;5396600;26;20815;-77
2024/04/19 02:20:06;;;;;;;6.87;3.83;;;;;;;5.46;100.00;96340.81;5397835;26;20271;-77
2024/04/19 02:22:32;;;;;;;6.30;3.70;;;;;;;5.46;100.00;96346.03;5397224;26;20643;-77
2024/04/19 02:25:00;;;;;;;9.40;3.80;;;;;;;5.36;100.00;96340.00;5397774;26;20227;-77
2024/04/19 02:32:59;;;;;;;8.13;4.60;;;;;;;5.56;100.00;96331.13;5399273;26;20278;-77
2024/04/19 02:35:27;;;;;;;7.83;3.80;;;;;;;5.35;100.00;96321.88;5397729;26;20278;-77
2024/04/19 02:37:55;;;;;;;7.07;4.20;;;;;;;5.23;100.00;96321.22;5397704;26;20725;-76
2024/04/19 02:40:24;;;;;;;9.70;3.77;;;;;;;5.22;100.00;96316.97;5397140;26;20235;-77
2024/04/19 02:42:49;;;;;;;8.97;4.63;;;;;;;5.28;100.00;96323.38;5391992;26;21066;-77
2024/04/19 02:45:17;;;;;;;7.10;4.00;;;;;;;5.31;100.00;96315.25;5397997;26;20335;-78
2024/04/19 02:47:45;;;;;;;6.67;3.73;;;;;;;5.34;100.00;96307.97;5396027;26;20865;-77
2024/04/19 02:50:16;;;;;;;9.93;3.87;;;;;;;5.33;100.00;96308.94;5397019;26;20235;-77
2024/04/19 02:52:44;;;;;;;6.90;4.07;;;;;;;4.90;100.00;96300.84;5393293;26;20343;-77
2024/04/19 02:55:12;;;;;;;8.60;4.07;;;;;;;4.78;100.00;96295.91;5396539;26;20800;-76
2024/04/19 02:57:41;;;;;;;7.40;3.63;;;;;;;5.02;100.00;96291.84;5395182;26;20223;-77
2024/04/19 03:00:09;;;;;;;9.00;4.50;;;;;;;5.05;100.00;96285.53;5397087;26;20971;-77
2024/04/19 03:02:38;;;;;;;8.27;3.87;;;;;;;4.88;100.00;96281.06;5393174;26;20235;-76
2024/04/19 03:05:06;;;;;;;9.47;4.47;;;;;;;4.95;100.00;96289.94;5396430;26;20503;-78
2024/04/19 03:07:37;;;;;;;8.07;3.83;;;;;;;5.06;100.00;96280.16;5395439;26;20304;-78
2024/04/19 03:10:05;;;;;;;8.90;4.43;;;;;;;4.91;100.00;96286.81;5396339;26;20238;-78
2024/04/19 03:12:34;;;;;;;8.47;4.10;;;;;;;4.84;100.00;96275.28;5394491;26;20343;-78
2024/04/19 03:15:02;;;;;;;8.47;4.30;;;;;;;4.93;100.00;96276.22;5397589;26;20335;-77
2024/04/19 03:17:30;;;;;;;9.80;4.67;;;;;;;4.95;100.00;96277.75;5396764;26;20235;-78
2024/04/19 03:19:58;;;;;;;7.87;4.37;;;;;;;5.12;100.00;96274.38;5396742;26;20571;-77
2024/04/19 03:22:26;;;;;;;9.77;5.30;;;;;;;4.91;100.00;96272.94;5396141;26;20239;-77
2024/04/19 03:24:57;;;;;;;10.00;4.40;;;;;;;5.04;100.00;96276.03;5398732;26;20231;-77
2024/04/19 03:27:25;;;;;;;9.63;5.17;;;;;;;4.95;100.00;96272.50;5397783;26;20223;-77
2024/04/19 03:29:56;;;;;;;6.80;3.87;;;;;;;4.97;100.00;96274.97;5396384;26;20772;-77
2024/04/19 03:32:25;;;;;;;10.00;4.77;;;;;;;5.12;100.00;96274.38;5395372;26;20223;-77
2024/04/19 03:34:55;;;;;;;8.83;4.10;;;;;;;5.23;100.00;96268.97;5395849;26;20327;-77
2024/04/19 03:37:23;;;;;;;10.67;5.20;;;;;;;5.17;100.00;96261.72;5396947;26;20227;-77
2024/04/19 03:39:51;;;;;;;7.60;4.37;;;;;;;5.08;100.00;96262.56;5396767;26;20296;-78
2024/04/19 03:42:22;;;;;;;9.43;4.60;;;;;;;5.16;100.00;96267.91;5395159;26;20331;-77
2024/04/19 03:47:34;;;;;;;10.93;5.13;;;;;;;5.26;100.00;96253.00;5399731;26;20328;-77
2024/04/19 03:50:02;;;;;;;10.47;5.67;;;;;;;5.27;100.00;96254.66;5396626;26;20238;-77
2024/04/19 03:52:30;;;;;;;11.97;5.30;;;;;;;5.21;100.00;96247.38;5394632;26;20227;-76
2024/04/19 03:54:58;;;;;;;8.77;4.53;;;;;;;5.16;100.00;96252.22;5396404;26;20226;-78
2024/04/19 03:57:29;;;;;;;9.20;4.60;;;;;;;5.32;100.00;96252.44;5396569;26;20327;-77
2024/04/19 03:59:57;;;;;;;10.00;4.70;;;;;;;5.12;100.00;96237.81;5395711;26;20307;-77
2024/04/19 04:02:25;;;;;;;8.97;5.07;;;;;;;5.13;100.00;96244.69;5393622;26;21516;-76
2024/04/19 04:04:53;;;;;;;8.50;4.07;;;;;;;5.06;100.00;96238.38;5393543;26;20331;-76
2024/04/19 04:07:21;;;;;;;9.63;4.77;;;;;;;5.18;100.00;96242.47;5394895;26;20300;-77
2024/04/19 04:09:49;;;;;;;9.27;4.53;;;;;;;5.27;100.00;96225.94;5393661;26;20249;-78
2024/04/19 04:12:18;;;;;;;9.83;4.07;;;;;;;5.25;100.00;96221.81;5393553;26;20227;-76
2024/04/19 04:14:49;;;;;;;10.77;4.10;;;;;;;5.39;100.00;96222.13;5392997;26;20246;-77
2024/04/19 04:17:17;;;;;;;9.93;4.53;;;;;;;5.33;100.00;96224.50;5395197;26;20265;-77
2024/04/19 04:19:45;;;;;;;7.60;4.43;;;;;;;5.44;100.00;96225.13;5393645;26;20327;-77
2024/04/19 04:22:13;;;;;;;9.13;4.63;;;;;;;5.34;100.00;96224.38;5394080;26;20340;-77
2024/04/19 04:24:41;;;;;;;9.47;4.83;;;;;;;5.27;100.00;96223.31;5394453;26;20330;-78
2024/04/19 04:27:09;;;;;;;8.93;4.07;;;;;;;5.18;100.00;96224.19;5398620;26;20356;-78
2024/04/19 04:29:37;;;;;;;10.20;5.07;;;;;;;5.23;100.00;96228.97;5396573;26;20721;-77
2024/04/19 04:32:09;;;;;;;6.90;3.67;;;;;;;5.27;100.00;96220.69;5397485;26;20358;-77
2024/04/19 04:34:38;;;;;;;10.03;4.50;;;;;;;5.14;100.00;96225.44;5397100;26;20300;-76
2024/04/19 04:37:06;;;;;;;8.03;4.20;;;;;;;5.17;100.00;96225.16;5397553;26;20238;-76
2024/04/19 04:39:34;;;;;;;11.47;4.50;;;;;;;5.18;100.00;96225.97;5396964;26;21871;-77
2024/04/19 04:42:02;;;;;;;8.87;4.40;;;;;;;5.22;100.00;96212.47;5396974;26;20231;-77
2024/04/19 04:44:32;;;;;;;9.50;4.03;;;;;;;5.13;100.00;96212.50;5397981;26;20360;-76
2024/04/19 04:47:00;;;;;;;8.50;4.30;;;;;;;5.19;100.00;96233.63;5397401;26;20242;-77
2024/04/19 04:49:31;;;;;;;9.60;4.37;;;;;;;5.16;100.00;96226.09;5398894;26;20313;-77
2024/04/19 04:51:59;;;;;;;8.93;4.03;;;;;;;5.13;100.00;96226.41;5395725;26;20238;-77
2024/04/19 04:54:27;;;;;;;7.93;3.70;;;;;;;5.02;100.00;96221.34;5397919;26;20223;-78
2024/04/19 04:56:55;;;;;;;11.40;4.33;;;;;;;5.11;100.00;96223.09;5397110;26;20234;-77
2024/04/19 04:59:24;;;;;;;6.07;3.70;;;;;;;5.19;100.00;96219.78;5397681;26;20331;-77
2024/04/19 05:01:52;;;;;;;9.87;4.90;;;;;;;5.16;100.00;96210.44;5395313;26;20238;-77
2024/04/19 05:04:20;;;;;;;11.90;5.33;;;;;;;5.31;100.00;96214.22;5397385;26;20335;-77
2024/04/19 05:06:52;;;;;;;9.53;4.70;;;;;;;5.32;100.00;96213.25;5397876;26;20323;-76
2024/04/19 05:09:20;;;;;;;8.83;3.97;;;;;;;5.24;100.00;96201.88;5397976;26;20676;-76
2024/04/19 05:11:49;;;;;;;9.73;4.87;;;;;;;5.17;100.00;96209.47;5396064;26;21168;-77
2024/04/19 05:14:17;;;;;;;9.70;4.70;;;;;;;5.23;100.00;96206.28;5397232;26;20234;-75
2024/04/19 05:16:45;;;;;;;8.67;4.30;;;;;;;5.33;100.00;96209.66;5395417;26;20635;-76
2024/04/19 05:19:13;;;;;;;11.10;4.63;;;;;;;5.43;100.00;96199.16;5397181;26;20242;-75
2024/04/19 05:21:41;;;;;;;10.60;4.53;;;;;;;5.56;100.00;96196.06;5395870;26;20238;-76
2024/04/19 05:24:12;;;;;;;8.97;4.33;;;;;;;5.50;100.00;96188.78;5397565;26;20566;-76
2024/04/19 05:26:40;;;;;;;7.33;3.97;;;;;;;5.38;100.00;96207.41;5396034;26;20868;-78
2024/04/19 05:29:09;;;;;;;8.27;4.50;;;;;;;5.36;100.00;96204.16;5397775;26;20231;-76
2024/04/19 05:31:37;;;;;;;10.13;4.87;;;;;;;5.21;100.00;96203.00;5395861;26;20235;-76
2024/04/19 05:34:05;;;;;;;14.03;5.87;;;;;;;5.40;100.00;96208.13;5397189;26;20922;-77
2024/04/19 05:36:33;;;;;;;9.47;4.63;;;;;;;5.43;100.00;96197.34;5396741;26;20227;-77
2024/04/19 05:39:02;;;;;;;10.40;5.10;;;;;;;5.34;100.00;96211.31;5396912;26;20230;-78
2024/04/19 05:41:32;;;;;;;8.07;3.73;;;;;;;5.56;100.00;96205.66;5397126;26;20351;-77
2024/04/19 05:44:00;;;;;;;19.10;6.73;;;;;;;5.61;100.00;96203.44;5396765;26;20231;-77
2024/04/19 05:46:29;;;;;;;8.33;4.53;;;;;;;5.43;100.00;96195.59;5397348;26;20227;-77
2024/04/19 05:48:54;;;;;;;9.43;4.73;;;;;;;5.43;100.00;96200.81;5397233;26;20227;-76
2024/04/19 05:51:22;;;;;;;10.57;4.73;;;;;;;5.51;100.00;96186.97;5393779;26;21282;-76
2024/04/19 05:53:51;;;;;;;11.23;4.90;;;;;;;5.60;100.00;96196.56;5390541;26;20339;-78
2024/04/19 05:56:19;;;;;;;9.13;4.20;;;;;;;5.67;100.00;96192.41;5396028;26;20365;-77
2024/04/19 05:58:49;;;;;;;9.10;4.90;;;;;;;5.72;100.00;96190.16;5394614;26;20251;-76
2024/04/19 06:01:18;;;;;;;16.43;7.00;;;;;;;5.65;100.00;96189.94;5396679;26;20239;-76
2024/04/19 06:03:46;;;;;;;10.10;4.63;;;;;;;5.80;100.00;96182.41;5393799;26;20713;-76
2024/04/19 06:06:14;;;;;;;17.10;7.10;;;;;;;5.66;100.00;96172.44;5395033;26;20345;-76
2024/04/19 06:08:42;;;;;;;13.07;5.73;;;;;;;5.84;100.00;96168.91;5394446;26;20227;-76
2024/04/19 06:11:11;;;;;;;12.70;5.10;;;;;;;5.94;100.00;96168.81;5394901;26;20345;-76
2024/04/19 06:13:39;;;;;;;16.53;5.17;;;;;;;5.83;100.00;96172.50;5393968;26;20334;-77
2024/04/19 06:16:10;;;;;;;10.97;5.27;;;;;;;6.14;100.00;96174.53;5393944;26;20231;-77
2024/04/19 06:18:39;;;;;;;15.20;7.10;;;;;;;6.14;100.00;96165.88;5395773;26;20219;-76
2024/04/19 06:21:07;;;;;;;13.60;5.63;;;;;;;6.04;100.00;96171.19;5396485;26;20230;-77
2024/04/19 06:23:35;;;;;;;8.90;4.53;;;;;;;6.15;100.00;96168.34;5395696;26;20336;-76
2024/04/19 06:26:07;;;;;;;15.20;6.20;;;;;;;6.31;100.00;96163.25;5396165;26;20721;-76
2024/04/19 06:28:36;;;;;;;12.93;5.13;;;;;;;6.32;100.00;96158.81;5396683;26;20359;-77
2024/04/19 06:31:11;;;;;;;10.57;4.80;;;;;;;6.40;100.00;96154.47;5395849;26;20235;-77
2024/04/19 06:33:39;;;;;;;9.33;4.50;;;;;;;6.31;100.00;96157.16;5394954;26;20226;-77
2024/04/19 06:36:08;;;;;;;8.13;4.17;;;;;;;6.13;100.00;96154.56;5395759;26;20705;-76
2024/04/19 06:38:36;;;;;;;15.10;6.37;;;;;;;6.10;100.00;96151.47;5396780;26;20346;-77
2024/04/19 06:41:05;;;;;;;8.27;4.70;;;;;;;6.26;100.00;96154.19;5395614;26;20833;-77
2024/04/19 06:43:33;;;;;;;10.10;4.57;;;;;;;6.31;100.00;96154.56;5395595;26;20235;-78
2024/04/19 06:46:01;;;;;;;28.00;9.03;;;;;;;6.19;100.00;96153.97;5395145;26;20238;-77
2024/04/19 06:48:32;;;;;;;6.80;3.83;;;;;;;6.32;100.00;96149.16;5393285;26;20361;-76
2024/04/19 06:51:00;;;;;;;6.83;3.30;;;;;;;6.08;100.00;96156.84;5394984;26;20234;-75
2024/04/19 06:53:28;;;;;;;9.23;3.93;;;;;;;6.51;100.00;96156.00;5393806;26;20311;-77
2024/04/19 06:55:56;;;;;;;9.10;3.40;;;;;;;6.43;100.00;96151.53;5394478;26;20372;-77
2024/04/19 06:58:24;;;;;;;10.60;3.90;;;;;;;6.46;100.00;96145.97;5395966;26;20572;-77
2024/04/19 07:00:52;;;;;;;11.27;4.83;;;;;;;6.28;100.00;96145.22;5396170;26;20227;-77
2024/04/19 07:03:20;;;;;;;9.73;3.97;;;;;;;6.56;100.00;96148.50;5394861;26;20219;-77
2024/04/19 07:05:51;;;;;;;8.27;4.07;;;;;;;6.68;100.00;96140.22;5396002;26;20235;-76
2024/04/19 07:08:19;;;;;;;8.33;4.33;;;;;;;6.64;100.00;96138.91;5397010;26;20239;-76
2024/04/19 07:10:49;;;;;;;8.87;3.83;;;;;;;6.68;100.00;96140.22;5394823;26;20238;-76
2024/04/19 07:13:18;;;;;;;10.80;4.50;;;;;;;6.69;100.00;96126.16;5395985;26;20815;-77
2024/04/19 07:15:46;;;;;;;8.10;3.87;;;;;;;6.83;100.00;96128.19;5393493;26;20239;-77
2024/04/19 07:18:21;;;;;;;17.80;6.87;;;;;;;6.61;100.00;96126.13;5395296;26;20267;-76
2024/04/19 07:20:51;;;;;;;9.20;4.40;;;;;;;6.99;100.00;96121.22;5394247;26;20261;-78
2024/04/19 07:23:20;;;;;;;9.93;4.67;;;;;;;7.14;100.00;96124.06;5394546;26;20300;-76
2024/04/19 07:25:48;;;;;;;8.50;4.23;;;;;;;7.01;100.00;96115.81;5394431;26;20316;-77
2024/04/19 07:28:16;;;;;;;11.53;4.43;;;;;;;7.05;100.00;96111.91;5396565;26;20874;-76
2024/04/19 07:30:45;;;;;;;8.60;4.07;;;;;;;7.15;100.00;96102.13;5394432;26;20230;-78
2024/04/19 07:33:13;;;;;;;9.03;4.83;;;;;;;7.30;100.00;96110.00;5395326;26;20334;-77
2024/04/19 07:35:41;;;;;;;11.10;4.80;;;;;;;7.35;100.00;96102.50;5394784;26;20335;-75
2024/04/19 07:38:13;;;;;;;7.60;4.10;;;;;;;7.51;100.00;96102.53;5395210;26;20814;-75
2024/04/19 07:40:42;;;;;;;7.47;3.80;;;;;;;7.50;100.00;96103.50;5392232;26;20680;-75
2024/04/19 07:43:10;;;;;;;7.50;3.33;;;;;;;7.33;100.00;96099.22;5392055;26;20290;-75
2024/04/19 07:45:39;;;;;;;7.73;3.73;;;;;;;7.46;100.00;96096.94;5393900;26;20286;-75
2024/04/19 07:48:08;;;;;;;7.47;3.93;;;;;;;7.60;100.00;96098.09;5393766;26;20297;-76
2024/04/19 07:50:36;;;;;;;6.70;2.73;;;;;;;7.25;100.00;96087.91;5392431;26;20364;-76
2024/04/19 07:53:04;;;;;;;14.97;4.17;;;;;;;7.51;100.00;96089.44;5391417;26;20286;-76
2024/04/19 07:55:35;;;;;;;10.03;4.77;;;;;;;7.97;100.00;96080.94;5393084;26;20223;-76
2024/04/19 07:58:03;;;;;;;8.87;3.13;;;;;;;7.90;100.00;96079.94;5393502;26;20286;-76
2024/04/19 08:00:32;;;;;;;6.97;3.50;;;;;;;7.63;100.00;96077.63;5397782;26;20220;-76
2024/04/19 08:03:01;;;;;;;7.03;3.00;;;;;;;7.76;100.00;96062.22;5396499;26;20257;-76
2024/04/19 08:05:29;;;;;;;8.07;4.20;;;;;;;8.10;100.00;96057.63;5397688;26;21354;-76
2024/04/19 08:07:58;;;;;;;8.20;3.83;;;;;;;7.98;100.00;96066.81;5398537;26;20310;-76
2024/04/19 08:10:27;;;;;;;9.47;3.73;;;;;;;7.82;100.00;96066.81;5398216;26;21150;-77
2024/04/19 08:12:58;;;;;;;7.13;3.33;;;;;;;7.92;100.00;96067.47;5395963;26;20325;-78
2024/04/19 08:15:26;;;;;;;5.13;2.80;;;;;;;7.86;100.00;96054.22;5398963;26;20231;-77
2024/04/19 08:17:54;;;;;;;8.63;3.93;;;;;;;7.82;100.00;96047.66;5396059;26;20310;-78
2024/04/19 08:20:23;;;;;;;6.43;2.97;;;;;;;7.89;100.00;96046.81;5393810;26;20314;-75
2024/04/19 08:22:51;;;;;;;7.17;3.13;;;;;;;7.84;100.00;96040.41;5393805;26;20369;-76
2024/04/19 08:25:19;;;;;;;7.53;3.83;;;;;;;8.30;100.00;96035.28;5396979;26;20226;-76
2024/04/19 08:27:47;;;;;;;7.50;3.63;;;;;;;8.11;100.00;96033.84;5394782;26;20565;-75
2024/04/19 08:30:18;;;;;;;8.97;4.03;;;;;;;8.16;100.00;96025.47;5396028;26;20311;-75
2024/04/19 08:32:47;;;;;;;5.77;3.17;;;;;;;7.96;100.00;96021.56;5393870;26;20342;-75
2024/04/19 08:35:15;;;;;;;5.27;3.20;;;;;;;8.19;100.00;96015.47;5397196;26;20732;-75
2024/04/19 08:37:44;;;;;;;5.07;2.60;;;;;;;8.22;100.00;96006.44;5394325;26;20298;-75
2024/04/19 08:40:14;;;;;;;4.87;2.70;;;;;;;8.37;100.00;96005.56;5397088;26;20377;-75
2024/04/19 08:42:42;;;;;;;3.77;2.40;;;;;;;8.16;100.00;96005.31;5392371;26;20294;-76
2024/04/19 08:45:12;;;;;;;6.27;3.77;;;;;;;8.39;100.00;95992.28;5397222;26;20282;-75
2024/04/19 08:47:45;;;;;;;6.50;3.73;;;;;;;8.66;100.00;95990.84;5396081;26;20227;-76
2024/04/19 08:50:14;;;;;;;6.00;2.50;;;;;;;8.64;100.00;95989.38;5398558;26;20933;-75
2024/04/19 08:52:45;;;;;;;4.73;2.20;;;;;;;8.48;100.00;95998.16;5393029;26;20730;-76
2024/04/19 08:55:14;;;;;;;7.60;2.60;;;;;;;8.27;100.00;95983.13;5395967;26;20231;-75
2024/04/19 08:57:44;;;;;;;3.20;2.00;;;;;;;8.15;100.00;95968.75;5394899;26;20381;-76
2024/04/19 09:00:14;;;;;;;4.10;2.00;;;;;;;8.33;100.00;95966.72;5396172;26;20803;-75
2024/04/19 09:02:45;;;;;;;4.80;2.33;;;;;;;8.30;100.00;95970.50;5393847;26;20294;-76
2024/04/19 09:05:13;;;;;;;4.90;2.50;;;;;;;8.41;100.00;95970.13;5396750;26;20262;-76
2024/04/19 09:07:42;;;;;;;2.77;1.50;;;;;;;8.31;100.00;95964.28;5394782;26;20227;-76
2024/04/19 09:10:12;;;;;;;4.67;2.13;;;;;;;8.52;100.00;95964.50;5396440;26;20222;-76
2024/04/19 09:12:41;;;;;;;4.83;2.30;;;;;;;8.31;100.00;95960.81;5393993;26;20644;-75
2024/04/19 09:15:09;;;;;;;3.90;2.17;;;;;;;8.29;100.00;95954.94;5394891;26;20353;-75
2024/04/19 09:17:37;;;;;;;2.60;1.67;;;;;;;8.09;100.00;95961.50;5395904;26;20290;-76
2024/04/19 09:20:09;;;;;;;4.83;2.97;;;;;;;8.21;100.00;95947.06;5394734;26;20218;-75
2024/04/19 09:22:37;;;;;;;5.37;1.60;;;;;;;8.04;100.00;95948.06;5395671;26;20372;-76
2024/04/19 09:25:06;;;;;;;2.77;1.73;;;;;;;8.36;100.00;95954.06;5395449;26;20321;-76
2024/04/19 09:27:36;;;;;;;5.53;2.40;;;;;;;8.34;100.00;95932.41;5394476;26;20294;-76
2024/04/19 09:30:05;;;;;;;4.90;2.00;;;;;;;8.35;100.00;95933.22;5394933;26;20273;-76
2024/04/19 09:32:36;;;;;;;4.13;2.37;;;;;;;8.26;100.00;95932.47;5393995;26;20231;-75
2024/04/19 09:35:04;;;;;;;2.77;1.73;;;;;;;8.16;100.00;95936.25;5395522;26;20239;-74
2024/04/19 09:37:35;;;;;;;5.50;2.40;;;;;;;8.15;100.00;95911.81;5395152;26;20252;-76
2024/04/19 09:40:03;;;;;;;4.37;2.50;;;;;;;8.24;100.00;95920.50;5395887;26;20290;-76
2024/04/19 09:42:33;;;;;;;4.00;2.23;;;;;;;8.31;100.00;95896.03;5393706;26;20314;-77
2024/04/19 09:45:03;;;;;;;3.53;2.23;;;;;;;7.89;100.00;95916.47;5394663;26;20274;-76
2024/04/19 09:47:33;;;;;;;3.37;1.70;;;;;;;7.90;100.00;95914.66;5394107;26;20380;-76
2024/04/19 09:50:04;;;;;;;2.10;1.63;;;;;;;7.81;100.00;95907.00;5393114;26;21037;-76
2024/04/19 09:52:42;;;;;;;5.47;2.30;;;;;;;7.81;100.00;95910.44;5393266;26;20404;-75
2024/04/19 09:55:19;;;;;;;3.53;2.17;;;;;;;7.76;100.00;95893.56;5393403;26;20239;-76
2024/04/19 09:57:49;;;;;;;4.70;2.43;;;;;;;7.79;100.00;95901.94;5394289;26;20314;-76
2024/04/19 10:00:17;;;;;;;3.30;2.30;;;;;;;8.07;100.00;95882.13;5391962;26;20357;-75
2024/04/19 10:02:46;;;;;;;5.33;2.70;;;;;;;8.22;100.00;95883.94;5392837;26;20313;-75
2024/04/19 10:05:15;;;;;;;4.70;2.10;;;;;;;8.28;100.00;95871.91;5391525;26;21371;-75
2024/04/19 10:07:49;;;;;;;5.17;3.17;;;;;;;8.36;100.00;95866.63;5395298;26;21218;-75
2024/04/19 10:10:17;;;;;;;3.97;2.20;;;;;;;8.08;100.00;95873.28;5393706;26;20223;-76
2024/04/19 10:12:47;;;;;;;3.00;1.93;;;;;;;7.74;100.00;95867.50;5393276;26;20298;-75
2024/04/19 10:15:15;;;;;;;6.23;2.43;;;;;;;7.65;100.00;95860.66;5393320;26;20703;-75
2024/04/19 10:17:44;;;;;;;3.97;2.10;;;;;;;7.37;100.00;95869.91;5394624;26;20231;-75
2024/04/19 10:20:13;;;;;;;3.47;2.23;;;;;;;7.38;100.00;95853.19;5391887;26;21318;-75
2024/04/19 10:22:42;;;;;;;3.17;1.90;;;;;;;7.51;100.00;95850.03;5391941;26;20238;-76
2024/04/19 10:25:13;;;;;;;5.57;2.60;;;;;;;7.80;100.00;95853.72;5391977;26;20287;-75
2024/04/19 10:27:42;;;;;;;4.40;3.13;;;;;;;7.64;100.00;95852.97;5393248;26;20239;-76
2024/04/19 10:30:11;;;;;;;4.90;1.73;;;;;;;7.41;100.00;95850.22;5393355;26;20227;-76
2024/04/19 10:32:39;;;;;;;2.30;1.47;;;;;;;7.39;100.00;95833.03;5393401;26;20235;-75
2024/04/19 10:35:13;;;;;;;5.43;2.30;;;;;;;7.78;100.00;95826.00;5394659;26;20277;-78
2024/04/19 10:37:41;;;;;;;3.90;2.30;;;;;;;7.26;100.00;95832.72;5392307;26;20294;-77
2024/04/19 10:40:11;;;;;;;5.13;2.70;;;;;;;7.59;100.00;95829.06;5394247;26;20391;-77
2024/04/19 10:42:42;;;;;;;4.33;2.67;;;;;;;7.51;100.00;95803.69;5395058;26;20282;-76
2024/04/19 10:45:13;;;;;;;4.90;2.43;;;;;;;7.70;100.00;95816.41;5395216;26;20242;-76
2024/04/19 10:47:42;;;;;;;7.43;2.53;;;;;;;7.44;100.00;95797.44;5392038;26;20376;-76
2024/04/19 10:50:11;;;;;;;5.87;3.10;;;;;;;7.38;100.00;95789.44;5394166;26;20337;-77
2024/04/19 10:52:40;;;;;;;4.73;2.77;;;;;;;7.39;100.00;95797.13;5392349;26;20724;-75
2024/04/19 10:55:09;;;;;;;4.97;2.57;;;;;;;7.35;100.00;95795.84;5396027;26;20581;-77
2024/04/19 10:57:37;;;;;;;5.40;2.63;;;;;;;7.33;100.00;95783.88;5395858;26;20397;-77
2024/04/19 11:00:09;;;;;;;5.57;3.03;;;;;;;7.53;100.00;95772.03;5395113;26;20858;-77
2024/04/19 11:02:39;;;;;;;4.30;2.73;;;;;;;7.33;100.00;95787.34;5394827;26;20230;-76
2024/04/19 11:05:09;;;;;;;4.00;2.83;;;;;;;7.26;100.00;95773.25;5394706;26;20231;-76
2024/04/19 11:07:38;;;;;;;4.67;2.27;;;;;;;7.55;100.00;95755.16;5395156;26;20234;-78
2024/04/19 11:10:06;;;;;;;2.27;1.80;;;;;;;7.56;100.00;95755.97;5395272;26;20278;-76
2024/04/19 11:12:35;;;;;;;3.33;2.30;;;;;;;7.49;100.00;95737.47;5394128;26;21030;-76
2024/04/19 11:15:05;;;;;;;5.17;2.60;;;;;;;7.21;100.00;95745.94;5396036;26;20898;-76
2024/04/19 11:17:36;;;;;;;2.30;1.60;;;;;;;7.21;100.00;95751.19;5396116;26;21103;-77
2024/04/19 11:20:04;;;;;;;4.70;2.20;;;;;;;6.99;100.00;95746.66;5395364;26;20350;-76
2024/04/19 11:22:36;;;;;;;5.13;1.97;;;;;;;7.10;100.00;95743.66;5393846;26;20269;-77
2024/04/19 11:25:05;;;;;;;4.67;1.43;;;;;;;7.04;100.00;95733.03;5394730;26;20227;-75
2024/04/19 11:27:30;;;;;;;5.60;2.90;;;;;;;7.14;100.00;95750.22;5395010;26;20306;-76
2024/04/19 11:29:59;;;;;;;4.30;2.40;;;;;;;6.97;100.00;95722.41;5394681;26;20649;-76
2024/04/19 11:32:28;;;;;;;5.20;2.83;;;;;;;6.93;100.00;95712.47;5393735;26;20317;-76
2024/04/19 11:35:01;;;;;;;4.67;2.80;;;;;;;7.14;100.00;95717.97;5392827;26;20326;-76
2024/04/19 11:37:29;;;;;;;2.97;1.90;;;;;;;6.79;100.00;95705.28;5393557;26;20249;-75
2024/04/19 11:39:57;;;;;;;3.80;2.50;;;;;;;6.97;100.00;95703.28;5393612;26;20294;-76
2024/04/19 11:42:26;;;;;;;4.60;2.57;;;;;;;6.83;100.00;95710.00;5388764;26;20314;-76
2024/04/19 11:44:55;;;;;;;3.43;2.23;;;;;;;6.94;100.00;95701.00;5389463;26;20227;-76
2024/04/19 11:47:23;;;;;;;3.20;2.17;;;;;;;7.07;100.00;95696.06;5391816;26;20299;-76
2024/04/19 11:49:52;;;;;;;3.50;2.47;;;;;;;7.12;100.00;95688.50;5388191;26;20827;-76